Terminal Aerodrome Forecast
Issued by NWS

Home | Current Version | Previous Version | Text Only | Print | Product List | Glossary On
Versions: 1 2 3 4 5 6 7 8 9 10 11 12 13 14 15 16 17
000
FTUS44 KCRP 021122
TAFALI
TAF
KALI 021122Z 0212/0312 VRB03KT 1/2SM FG SKC
      TEMPO 0212/0213 1/4SM FG VV002
     FM021300 18003KT P6SM SKC
     FM022200 13011KT P6SM SCT035
     FM031000 17003KT 2SM BR SKC=

USA.gov is the U.S. government's official web portal to all federal, state and local government web resources and services.